Time;durP1;ratioP1;P1;durP2;ratioP2;P2;SDS_P1;SDS_P2;PMS_P1;PMS_P2;Temp;Humidity;BMP_temperature;BMP_pressure;BME280_temperature;BME280_humidity;BME280_pressure;Samples;Min_cycle;Max_cycle;Signal;HPM_P1;HPM_P2
2022/11/17 00:02:20;;;;;;;17.27;16.08;;;;;;;;;;10194831;28;20049;-66
2022/11/17 00:07:17;;;;;;;17.20;15.93;;;;;;;;;;10193494;28;20133;-67
2022/11/17 00:17:28;;;;;;;16.02;14.63;;;;;;;;;;10193568;28;20049;-67
2022/11/17 00:22:24;;;;;;;16.60;15.30;;;;;;;;;;10191774;28;20456;-67
2022/11/17 00:27:21;;;;;;;15.90;14.77;;;;;;;;;;10192511;28;20427;-66
2022/11/17 00:37:34;;;;;;;16.77;15.23;;;;;;;;;;10191507;28;20046;-67
2022/11/17 00:42:30;;;;;;;17.60;16.30;;;;;;;;;;10188934;28;20053;-67
2022/11/17 00:47:26;;;;;;;17.45;16.25;;;;;;;;;;10191934;28;20179;-67
2022/11/17 00:52:22;;;;;;;16.52;15.23;;;;;;;;;;10191864;28;20052;-67
2022/11/17 00:57:19;;;;;;;16.75;15.52;;;;;;;;;;10192494;28;20056;-66
2022/11/17 01:02:15;;;;;;;17.90;16.60;;;;;;;;;;10192404;28;20415;-67
2022/11/17 01:07:11;;;;;;;16.08;14.95;;;;;;;;;;10191979;28;20042;-67
2022/11/17 01:12:09;;;;;;;16.42;15.23;;;;;;;;;;10191269;28;20045;-67
2022/11/17 01:17:05;;;;;;;16.65;15.45;;;;;;;;;;10191819;28;20073;-67
2022/11/17 01:22:01;;;;;;;16.73;15.05;;;;;;;;;;10189997;28;20045;-66
2022/11/17 01:26:57;;;;;;;17.35;16.15;;;;;;;;;;10186703;28;20041;-67
2022/11/17 01:31:53;;;;;;;16.23;15.02;;;;;;;;;;10190879;28;20042;-66
2022/11/17 01:42:10;;;;;;;17.00;15.60;;;;;;;;;;10192212;28;20046;-67
2022/11/17 01:47:12;;;;;;;18.23;16.65;;;;;;;;;;10190907;28;20041;-67
2022/11/17 01:52:09;;;;;;;16.27;14.98;;;;;;;;;;10188677;28;20411;-67
2022/11/17 01:57:08;;;;;;;16.30;15.10;;;;;;;;;;10190562;28;20046;-66
2022/11/17 02:02:05;;;;;;;16.33;14.93;;;;;;;;;;10187837;28;21827;-67
2022/11/17 02:07:06;;;;;;;16.63;15.32;;;;;;;;;;10188780;28;20042;-67
2022/11/17 02:12:04;;;;;;;17.48;16.17;;;;;;;;;;10187104;28;20049;-67
2022/11/17 02:17:01;;;;;;;17.40;16.08;;;;;;;;;;10190001;28;20056;-66
2022/11/17 02:22:08;;;;;;;16.90;15.70;;;;;;;;;;10193415;28;20056;-67
2022/11/17 02:27:17;;;;;;;17.40;16.10;;;;;;;;;;10196404;28;20053;-66
2022/11/17 02:32:28;;;;;;;15.93;14.82;;;;;;;;;;10192215;28;20042;-67
2022/11/17 02:37:27;;;;;;;16.55;15.32;;;;;;;;;;10194980;28;20041;-67
2022/11/17 02:44:02;;;;;;;16.73;15.52;;;;;;;;;;10191687;28;20419;-66
2022/11/17 02:47:45;;;;;;;16.27;14.98;;;;;;;;;;10197063;28;20049;-66
2022/11/17 02:52:41;;;;;;;15.90;14.75;;;;;;;;;;10194530;28;20233;-66
2022/11/17 02:57:39;;;;;;;15.80;14.60;;;;;;;;;;10187801;28;20049;-66
2022/11/17 03:02:54;;;;;;;16.58;15.27;;;;;;;;;;10190566;28;20045;-66
2022/11/17 03:08:07;;;;;;;17.58;16.27;;;;;;;;;;10188344;28;20046;-66
2022/11/17 03:13:10;;;;;;;16.10;14.88;;;;;;;;;;10193660;28;20042;-67
2022/11/17 03:18:24;;;;;;;15.38;14.18;;;;;;;;;;10185261;28;20041;-66
2022/11/17 03:23:24;;;;;;;16.08;14.88;;;;;;;;;;10185522;28;20042;-66
2022/11/17 03:28:22;;;;;;;15.88;14.65;;;;;;;;;;10190050;28;20042;-66
2022/11/17 03:33:20;;;;;;;14.88;13.77;;;;;;;;;;10191542;28;20046;-66
2022/11/17 03:38:19;;;;;;;15.27;14.07;;;;;;;;;;10189374;28;20038;-66
2022/11/17 03:43:16;;;;;;;15.88;14.65;;;;;;;;;;10194223;28;20046;-66
2022/11/17 03:48:15;;;;;;;15.52;14.27;;;;;;;;;;10188519;28;20050;-66
2022/11/17 03:53:12;;;;;;;15.65;14.25;;;;;;;;;;10190671;28;20061;-66
2022/11/17 03:58:11;;;;;;;15.90;14.50;;;;;;;;;;10191756;28;20414;-66
2022/11/17 04:03:08;;;;;;;14.25;12.95;;;;;;;;;;10194268;28;20048;-66
2022/11/17 04:08:04;;;;;;;15.45;14.25;;;;;;;;;;10193532;28;20040;-66
2022/11/17 04:18:15;;;;;;;16.05;14.65;;;;;;;;;;10190783;28;20596;-66
2022/11/17 04:23:13;;;;;;;15.50;14.30;;;;;;;;;;10193553;28;20056;-66
2022/11/17 04:33:24;;;;;;;15.77;14.52;;;;;;;;;;10191527;28;20057;-66
2022/11/17 04:38:20;;;;;;;15.13;13.93;;;;;;;;;;10192822;28;20623;-66
2022/11/17 04:43:17;;;;;;;15.68;14.48;;;;;;;;;;10192545;28;20054;-66
2022/11/17 04:48:13;;;;;;;15.45;14.07;;;;;;;;;;10191961;28;20050;-66
2022/11/17 04:53:09;;;;;;;16.92;15.55;;;;;;;;;;10192306;28;20643;-66
2022/11/17 04:58:05;;;;;;;16.90;15.23;;;;;;;;;;10191508;28;20038;-66
2022/11/17 05:03:02;;;;;;;17.55;16.15;;;;;;;;;;10187957;28;20072;-66
2022/11/17 05:07:58;;;;;;;16.30;15.02;;;;;;;;;;10187720;28;20050;-66
2022/11/17 05:18:09;;;;;;;18.15;16.73;;;;;;;;;;10188732;28;20517;-66
2022/11/17 05:28:20;;;;;;;17.98;16.58;;;;;;;;;;10182676;28;20046;-66
2022/11/17 05:33:17;;;;;;;17.90;16.50;;;;;;;;;;10190292;28;20053;-66
2022/11/17 05:38:13;;;;;;;16.88;15.57;;;;;;;;;;10190504;28;20527;-66
2022/11/17 05:43:09;;;;;;;18.30;16.90;;;;;;;;;;10191463;28;20053;-66
2022/11/17 05:48:05;;;;;;;18.98;17.38;;;;;;;;;;10190768;28;20037;-66
2022/11/17 05:53:02;;;;;;;18.30;16.90;;;;;;;;;;10191531;28;20415;-66
2022/11/17 05:58:05;;;;;;;19.77;18.08;;;;;;;;;;10194464;28;20042;-66
2022/11/17 06:03:04;;;;;;;19.50;17.85;;;;;;;;;;10198449;28;20042;-66
2022/11/17 06:08:00;;;;;;;19.83;18.27;;;;;;;;;;10196500;28;20541;-66
2022/11/17 06:12:56;;;;;;;20.85;19.15;;;;;;;;;;10198231;28;20423;-66
2022/11/17 06:17:58;;;;;;;21.05;19.15;;;;;;;;;;10195801;28;20057;-66
2022/11/17 06:22:56;;;;;;;20.10;18.27;;;;;;;;;;10192726;28;20046;-66
2022/11/17 06:27:52;;;;;;;20.65;18.95;;;;;;;;;;10197974;28;20052;-66
2022/11/17 06:32:49;;;;;;;21.63;19.92;;;;;;;;;;10193971;28;20042;-66
2022/11/17 06:37:45;;;;;;;20.50;18.95;;;;;;;;;;10197386;28;20069;-66
2022/11/17 06:47:56;;;;;;;20.77;19.17;;;;;;;;;;10196185;28;20073;-66
2022/11/17 06:52:56;;;;;;;21.35;19.63;;;;;;;;;;10196810;28;20126;-66
2022/11/17 06:57:59;;;;;;;21.27;19.63;;;;;;;;;;10194830;28;20046;-66
2022/11/17 07:02:59;;;;;;;21.33;19.70;;;;;;;;;;10192406;28;20140;-66
2022/11/17 07:07:57;;;;;;;22.58;20.80;;;;;;;;;;10194909;28;20500;-66
2022/11/17 07:12:54;;;;;;;21.90;20.00;;;;;;;;;;10189366;28;20049;-66
2022/11/17 07:17:50;;;;;;;23.25;21.10;;;;;;;;;;10186076;28;20042;-67
2022/11/17 07:22:47;;;;;;;20.38;18.77;;;;;;;;;;10194621;28;20570;-66
2022/11/17 07:27:43;;;;;;;20.98;19.25;;;;;;;;;;10195519;28;20041;-66
2022/11/17 07:32:40;;;;;;;21.13;18.73;;;;;;;;;;10192943;28;20046;-66
2022/11/17 07:37:36;;;;;;;21.15;19.38;;;;;;;;;;10194893;28;20053;-66
2022/11/17 07:42:32;;;;;;;20.95;19.25;;;;;;;;;;10195132;28;20128;-66
2022/11/17 07:47:28;;;;;;;19.55;17.80;;;;;;;;;;10193763;28;20049;-66
2022/11/17 07:52:25;;;;;;;19.98;18.25;;;;;;;;;;10194744;28;20459;-66
2022/11/17 07:57:21;;;;;;;21.75;19.92;;;;;;;;;;10193908;28;20050;-66
2022/11/17 08:02:17;;;;;;;21.90;19.73;;;;;;;;;;10195091;28;20046;-66
2022/11/17 08:07:13;;;;;;;21.42;19.73;;;;;;;;;;10193428;28;20044;-66
2022/11/17 08:12:10;;;;;;;23.65;21.63;;;;;;;;;;10192378;28;20061;-66
2022/11/17 08:17:06;;;;;;;21.23;19.63;;;;;;;;;;10193151;28;20050;-66
2022/11/17 08:22:02;;;;;;;21.30;19.48;;;;;;;;;;10189504;28;20050;-66
2022/11/17 08:26:59;;;;;;;25.98;23.38;;;;;;;;;;10193272;28;20099;-66
2022/11/17 08:31:55;;;;;;;21.02;19.42;;;;;;;;;;10192748;28;20054;-66
2022/11/17 08:36:51;;;;;;;20.55;19.05;;;;;;;;;;10192669;28;20042;-66
2022/11/17 08:41:50;;;;;;;20.27;18.75;;;;;;;;;;10193020;28;20136;-66
2022/11/17 08:46:47;;;;;;;21.88;20.10;;;;;;;;;;10193172;28;20057;-66
2022/11/17 08:51:44;;;;;;;21.42;19.58;;;;;;;;;;10191463;28;20061;-66
2022/11/17 08:56:40;;;;;;;20.95;19.35;;;;;;;;;;10191892;28;20091;-66
2022/11/17 09:01:36;;;;;;;21.58;19.83;;;;;;;;;;10193127;28;20053;-66
2022/11/17 09:06:33;;;;;;;22.80;20.92;;;;;;;;;;10191363;28;20041;-66
2022/11/17 09:11:29;;;;;;;22.40;20.23;;;;;;;;;;10191507;28;20054;-66
2022/11/17 09:16:26;;;;;;;20.85;19.05;;;;;;;;;;10191127;28;20072;-67
2022/11/17 09:21:22;;;;;;;20.95;19.25;;;;;;;;;;10192751;28;20046;-66
2022/11/17 09:26:18;;;;;;;22.17;20.33;;;;;;;;;;10191131;28;20084;-66
2022/11/17 09:31:16;;;;;;;22.80;20.90;;;;;;;;;;10188456;28;20042;-66
2022/11/17 09:36:14;;;;;;;21.17;19.48;;;;;;;;;;10190361;28;20057;-66
2022/11/17 09:41:11;;;;;;;24.00;22.10;;;;;;;;;;10190197;28;20105;-66
2022/11/17 09:46:15;;;;;;;22.67;20.88;;;;;;;;;;10188472;28;20076;-66
2022/11/17 09:51:14;;;;;;;22.20;20.50;;;;;;;;;;10191174;28;20504;-66
2022/11/17 09:56:12;;;;;;;22.00;20.13;;;;;;;;;;10190716;28;20416;-66
2022/11/17 10:01:12;;;;;;;22.98;20.90;;;;;;;;;;10190644;28;20081;-66
2022/11/17 10:06:14;;;;;;;22.40;20.45;;;;;;;;;;10189680;28;20694;-66
2022/11/17 10:16:26;;;;;;;24.30;22.10;;;;;;;;;;10191105;28;20508;-66
2022/11/17 10:21:22;;;;;;;23.67;21.88;;;;;;;;;;10189887;28;20100;-66
2022/11/17 10:26:19;;;;;;;25.80;23.38;;;;;;;;;;10191289;28;20065;-66
2022/11/17 10:31:16;;;;;;;24.10;21.92;;;;;;;;;;10188663;28;20056;-66
2022/11/17 10:36:39;;;;;;;24.98;22.88;;;;;;;;;;10191001;28;20496;-66
2022/11/17 10:41:37;;;;;;;23.60;21.70;;;;;;;;;;10186573;28;20104;-66
2022/11/17 10:46:51;;;;;;;26.75;24.08;;;;;;;;;;10192303;28;20058;-66
2022/11/17 10:52:04;;;;;;;24.00;21.95;;;;;;;;;;10195801;28;20050;-66
2022/11/17 10:57:04;;;;;;;25.92;23.63;;;;;;;;;;10191793;28;20084;-66
2022/11/17 11:02:24;;;;;;;25.88;23.73;;;;;;;;;;10197028;28;20111;-66
2022/11/17 11:07:22;;;;;;;28.70;26.48;;;;;;;;;;10195758;28;20142;-66
2022/11/17 11:12:23;;;;;;;34.00;31.20;;;;;;;;;;10194810;28;20050;-66
2022/11/17 11:17:20;;;;;;;37.28;34.38;;;;;;;;;;10195495;28;20042;-66
2022/11/17 11:22:26;;;;;;;41.45;38.25;;;;;;;;;;10195762;28;20044;-66
2022/11/17 11:27:32;;;;;;;43.05;39.85;;;;;;;;;;10196044;28;20053;-66
2022/11/17 11:32:48;;;;;;;42.47;39.58;;;;;;;;;;10195004;28;20077;-66
2022/11/17 11:37:59;;;;;;;42.92;39.83;;;;;;;;;;10193549;28;20677;-66
2022/11/17 11:43:07;;;;;;;50.58;47.20;;;;;;;;;;10187919;28;20221;-66
2022/11/17 11:48:10;;;;;;;53.60;49.88;;;;;;;;;;10189986;28;20543;-67
2022/11/17 11:53:36;;;;;;;51.28;47.88;;;;;;;;;;10194766;28;20046;-67
2022/11/17 11:58:33;;;;;;;55.92;51.60;;;;;;;;;;10177056;28;20061;-66
2022/11/17 12:03:29;;;;;;;55.92;52.20;;;;;;;;;;10190825;28;20076;-67
2022/11/17 12:08:34;;;;;;;63.00;59.03;;;;;;;;;;10193351;28;20045;-67
2022/11/17 12:13:31;;;;;;;73.25;67.65;;;;;;;;;;10192630;28;20391;-67
2022/11/17 12:18:29;;;;;;;76.82;71.65;;;;;;;;;;10193284;28;20045;-67
2022/11/17 12:23:33;;;;;;;80.95;75.78;;;;;;;;;;10186227;28;20405;-67
2022/11/17 12:28:29;;;;;;;83.18;78.05;;;;;;;;;;10193264;28;20077;-67
2022/11/17 12:33:44;;;;;;;87.38;81.95;;;;;;;;;;10183444;28;20496;-67
2022/11/17 12:38:40;;;;;;;91.45;85.50;;;;;;;;;;10183576;28;20751;-67
2022/11/17 12:43:37;;;;;;;92.05;86.20;;;;;;;;;;10192493;28;20157;-67
2022/11/17 12:48:37;;;;;;;96.03;89.85;;;;;;;;;;10189467;28;20054;-67
2022/11/17 12:53:54;;;;;;;99.53;93.40;;;;;;;;;;10191041;28;20053;-67
2022/11/17 12:58:50;;;;;;;98.53;92.25;;;;;;;;;;10159864;28;20052;-67
2022/11/17 13:04:05;;;;;;;97.55;91.50;;;;;;;;;;10190040;28;20100;-67
2022/11/17 13:09:04;;;;;;;96.53;90.28;;;;;;;;;;10189619;28;20041;-66
2022/11/17 13:14:10;;;;;;;104.05;97.32;;;;;;;;;;10190232;28;20397;-66
2022/11/17 13:19:26;;;;;;;103.63;96.70;;;;;;;;;;10191267;28;20064;-67
2022/11/17 13:24:33;;;;;;;104.40;97.55;;;;;;;;;;10190999;28;20042;-66
2022/11/17 13:29:29;;;;;;;105.82;98.60;;;;;;;;;;10206242;28;20048;-67
2022/11/17 13:34:26;;;;;;;105.90;98.95;;;;;;;;;;10188640;28;20527;-67
2022/11/17 13:39:23;;;;;;;110.18;103.05;;;;;;;;;;10183620;28;20041;-67
2022/11/17 13:44:24;;;;;;;110.28;103.07;;;;;;;;;;10190644;28;20094;-66
2022/11/17 13:49:29;;;;;;;115.68;108.80;;;;;;;;;;10191081;28;20049;-66
2022/11/17 13:54:26;;;;;;;110.38;103.40;;;;;;;;;;10189297;28;20141;-67
2022/11/17 13:59:27;;;;;;;111.55;104.10;;;;;;;;;;10191174;28;20085;-67
2022/11/17 14:04:23;;;;;;;106.18;99.28;;;;;;;;;;10190504;28;20138;-67
2022/11/17 14:09:20;;;;;;;107.70;100.68;;;;;;;;;;10189133;28;20058;-67
2022/11/17 14:14:21;;;;;;;110.28;103.10;;;;;;;;;;10190307;28;20052;-67
2022/11/17 14:19:19;;;;;;;113.77;105.97;;;;;;;;;;10196040;28;20088;-67
2022/11/17 14:24:15;;;;;;;110.82;103.80;;;;;;;;;;10197667;28;20038;-67
2022/11/17 14:29:12;;;;;;;114.95;107.68;;;;;;;;;;10196737;28;20042;-67
2022/11/17 14:34:08;;;;;;;113.82;106.18;;;;;;;;;;10198026;28;20041;-67
2022/11/17 14:39:14;;;;;;;113.15;106.03;;;;;;;;;;10192496;28;20046;-67
2022/11/17 14:44:11;;;;;;;114.93;107.28;;;;;;;;;;10197695;28;20042;-67
2022/11/17 14:49:08;;;;;;;116.18;108.47;;;;;;;;;;10196622;28;20056;-67
2022/11/17 14:54:04;;;;;;;113.93;106.70;;;;;;;;;;10196223;28;20056;-67
2022/11/17 14:59:01;;;;;;;111.00;103.90;;;;;;;;;;10197346;28;20054;-66
2022/11/17 15:03:59;;;;;;;114.53;107.00;;;;;;;;;;10196537;28;20057;-67
2022/11/17 15:08:57;;;;;;;115.40;107.85;;;;;;;;;;10193460;28;20057;-67
2022/11/17 15:13:54;;;;;;;114.63;107.13;;;;;;;;;;10191942;28;20326;-67
2022/11/17 15:18:50;;;;;;;108.53;101.43;;;;;;;;;;10193984;28;20503;-67
2022/11/17 15:23:47;;;;;;;117.35;109.68;;;;;;;;;;10191348;28;20045;-66
2022/11/17 15:28:43;;;;;;;111.10;103.75;;;;;;;;;;10194047;28;20050;-67
2022/11/17 15:33:40;;;;;;;117.15;109.75;;;;;;;;;;10191841;28;20183;-67
2022/11/17 15:38:37;;;;;;;109.53;102.55;;;;;;;;;;10193357;28;20073;-67
2022/11/17 15:43:34;;;;;;;111.53;104.45;;;;;;;;;;10194754;28;20089;-67
2022/11/17 15:48:32;;;;;;;115.43;107.88;;;;;;;;;;10191677;28;20496;-67
2022/11/17 15:53:29;;;;;;;112.43;105.25;;;;;;;;;;10194387;28;20038;-67
2022/11/17 15:58:26;;;;;;;113.15;105.93;;;;;;;;;;10194570;28;20081;-67
2022/11/17 16:03:22;;;;;;;110.90;103.70;;;;;;;;;;10192401;28;20108;-67
2022/11/17 16:08:18;;;;;;;113.88;106.38;;;;;;;;;;10194246;28;20121;-67
2022/11/17 16:13:14;;;;;;;108.60;101.65;;;;;;;;;;10193362;28;20038;-67
2022/11/17 16:18:10;;;;;;;110.60;103.50;;;;;;;;;;10193014;28;20042;-67
2022/11/17 16:23:07;;;;;;;111.93;104.40;;;;;;;;;;10192953;28;20046;-67
2022/11/17 16:28:03;;;;;;;110.40;103.28;;;;;;;;;;10189693;28;20534;-67
2022/11/17 16:33:00;;;;;;;108.38;101.35;;;;;;;;;;10189832;28;20535;-67
2022/11/17 16:37:56;;;;;;;109.43;102.35;;;;;;;;;;10192226;28;20037;-67
2022/11/17 16:42:52;;;;;;;113.97;106.65;;;;;;;;;;10193145;28;20712;-68
2022/11/17 16:47:48;;;;;;;109.20;102.03;;;;;;;;;;10192738;28;20069;-67
2022/11/17 16:52:44;;;;;;;107.80;100.80;;;;;;;;;;10191658;28;20061;-67
2022/11/17 16:57:41;;;;;;;107.43;100.22;;;;;;;;;;10192409;28;20073;-67
2022/11/17 17:02:37;;;;;;;105.97;98.85;;;;;;;;;;10190709;28;20041;-67
2022/11/17 17:07:33;;;;;;;107.43;100.70;;;;;;;;;;10190974;28;20053;-66
2022/11/17 17:12:30;;;;;;;107.63;100.65;;;;;;;;;;10192129;28;20415;-67
2022/11/17 17:17:26;;;;;;;110.88;103.78;;;;;;;;;;10190991;28;20045;-67
2022/11/17 17:22:22;;;;;;;108.55;101.50;;;;;;;;;;10191976;28;20103;-67
2022/11/17 17:27:19;;;;;;;112.43;105.25;;;;;;;;;;10188272;28;20076;-67
2022/11/17 17:32:15;;;;;;;112.30;105.00;;;;;;;;;;10190492;28;20034;-67
2022/11/17 17:37:11;;;;;;;111.03;103.80;;;;;;;;;;10191366;28;20042;-67
2022/11/17 17:42:07;;;;;;;113.95;106.70;;;;;;;;;;10191048;28;20046;-67
2022/11/17 17:47:04;;;;;;;114.15;106.57;;;;;;;;;;10190397;28;20074;-67
2022/11/17 17:52:00;;;;;;;116.13;108.63;;;;;;;;;;10196360;28;20050;-67
2022/11/17 17:56:56;;;;;;;120.72;113.15;;;;;;;;;;10198500;28;20459;-67
2022/11/17 18:01:52;;;;;;;114.78;107.38;;;;;;;;;;10199398;28;20050;-67
2022/11/17 18:06:49;;;;;;;114.82;107.53;;;;;;;;;;10197723;28;20053;-67
2022/11/17 18:11:48;;;;;;;116.65;109.20;;;;;;;;;;10199090;28;20034;-67
2022/11/17 18:16:46;;;;;;;117.45;110.00;;;;;;;;;;10186997;28;20496;-67
2022/11/17 18:21:43;;;;;;;121.95;114.13;;;;;;;;;;10195873;28;20050;-67
2022/11/17 18:26:40;;;;;;;117.00;109.47;;;;;;;;;;10193981;28;20571;-67
2022/11/17 18:31:36;;;;;;;118.93;111.38;;;;;;;;;;10198186;28;20038;-67
2022/11/17 18:36:34;;;;;;;123.35;115.43;;;;;;;;;;10197367;28;20141;-67
2022/11/17 18:41:32;;;;;;;117.60;110.10;;;;;;;;;;10197155;28;20058;-67
2022/11/17 18:46:29;;;;;;;117.05;109.50;;;;;;;;;;10197573;28;20038;-67
2022/11/17 18:51:27;;;;;;;117.97;110.50;;;;;;;;;;10197273;28;20046;-67
2022/11/17 18:56:24;;;;;;;114.13;106.97;;;;;;;;;;10197391;28;20045;-67
2022/11/17 19:01:22;;;;;;;114.10;106.78;;;;;;;;;;10195648;28;20053;-67
2022/11/17 19:06:19;;;;;;;116.43;108.95;;;;;;;;;;10197005;28;20046;-67
2022/11/17 19:11:16;;;;;;;116.70;109.13;;;;;;;;;;10188859;28;20065;-67
2022/11/17 19:16:16;;;;;;;113.65;106.75;;;;;;;;;;10196415;28;20120;-67
2022/11/17 19:21:20;;;;;;;112.82;105.88;;;;;;;;;;10188770;28;20042;-67
2022/11/17 19:26:17;;;;;;;116.32;109.13;;;;;;;;;;10190330;28;20133;-67
2022/11/17 19:31:15;;;;;;;111.63;104.63;;;;;;;;;;10194308;28;20143;-67
2022/11/17 19:36:15;;;;;;;115.68;108.57;;;;;;;;;;10195287;28;20138;-67
2022/11/17 19:41:16;;;;;;;116.63;108.13;;;;;;;;;;10195537;28;20049;-67
2022/11/17 19:46:13;;;;;;;109.82;103.13;;;;;;;;;;10189721;28;20068;-67
2022/11/17 19:51:11;;;;;;;114.38;107.13;;;;;;;;;;10195058;28;20076;-67
2022/11/17 19:56:08;;;;;;;112.30;105.55;;;;;;;;;;10193933;28;20038;-67
2022/11/17 20:01:11;;;;;;;110.95;104.32;;;;;;;;;;10195221;28;20499;-67
2022/11/17 20:06:09;;;;;;;111.03;104.32;;;;;;;;;;10189296;28;20041;-67
2022/11/17 20:11:05;;;;;;;105.28;98.78;;;;;;;;;;10194299;28;20053;-67
2022/11/17 20:16:02;;;;;;;106.97;100.32;;;;;;;;;;10190426;28;20045;-66
2022/11/17 20:21:06;;;;;;;107.45;100.85;;;;;;;;;;10194344;28;20124;-67
2022/11/17 20:26:06;;;;;;;105.88;99.30;;;;;;;;;;10192918;28;20046;-66
2022/11/17 20:31:06;;;;;;;107.25;100.50;;;;;;;;;;10192677;28;20045;-66
2022/11/17 20:36:03;;;;;;;106.40;99.80;;;;;;;;;;10191730;28;20038;-66
2022/11/17 20:40:59;;;;;;;110.65;104.03;;;;;;;;;;10192681;28;20041;-66
2022/11/17 20:45:56;;;;;;;105.50;99.03;;;;;;;;;;10193416;28;20042;-66
2022/11/17 20:50:56;;;;;;;108.47;101.95;;;;;;;;;;10192388;28;20049;-66
2022/11/17 20:55:56;;;;;;;110.03;103.40;;;;;;;;;;10192400;28;20046;-66
2022/11/17 21:00:52;;;;;;;110.40;103.60;;;;;;;;;;10192483;28;20128;-66
2022/11/17 21:05:52;;;;;;;110.47;103.65;;;;;;;;;;10191724;28;20503;-66
2022/11/17 21:10:54;;;;;;;106.22;99.72;;;;;;;;;;10191986;28;20065;-66
2022/11/17 21:16:03;;;;;;;108.65;101.97;;;;;;;;;;10191187;28;20169;-66
2022/11/17 21:21:00;;;;;;;112.70;105.65;;;;;;;;;;10192663;28;20150;-66
2022/11/17 21:25:56;;;;;;;109.00;102.40;;;;;;;;;;10190959;28;20108;-66
2022/11/17 21:31:00;;;;;;;108.80;102.10;;;;;;;;;;10192286;28;20096;-66
2022/11/17 21:36:00;;;;;;;115.38;107.80;;;;;;;;;;10190466;28;20046;-66
2022/11/17 21:41:03;;;;;;;111.55;104.70;;;;;;;;;;10192802;28;20046;-66
2022/11/17 21:46:01;;;;;;;113.53;106.38;;;;;;;;;;10190961;28;20046;-66
2022/11/17 21:50:57;;;;;;;115.90;108.65;;;;;;;;;;10190479;28;20038;-66
2022/11/17 21:56:04;;;;;;;114.53;106.93;;;;;;;;;;10191229;28;20046;-66
2022/11/17 22:01:10;;;;;;;115.90;108.60;;;;;;;;;;10190802;28;20057;-66
2022/11/17 22:06:08;;;;;;;114.85;107.75;;;;;;;;;;10190362;28;20149;-66
2022/11/17 22:11:05;;;;;;;116.13;108.78;;;;;;;;;;10190767;28;20078;-66
2022/11/17 22:16:02;;;;;;;118.00;110.35;;;;;;;;;;10190899;28;20411;-66
2022/11/17 22:20:59;;;;;;;119.78;112.18;;;;;;;;;;10190706;28;20081;-66
2022/11/17 22:25:58;;;;;;;117.85;110.50;;;;;;;;;;10190857;28;20459;-66
2022/11/17 22:30:55;;;;;;;114.13;106.82;;;;;;;;;;10190199;28;20056;-66
2022/11/17 22:35:51;;;;;;;120.93;113.25;;;;;;;;;;10189468;28;20049;-66
2022/11/17 22:40:47;;;;;;;119.28;111.72;;;;;;;;;;10197059;28;20101;-66
2022/11/17 22:45:44;;;;;;;120.00;112.50;;;;;;;;;;10197438;28;20108;-66
2022/11/17 22:50:40;;;;;;;120.95;113.45;;;;;;;;;;10197363;28;20054;-66
2022/11/17 22:55:36;;;;;;;118.93;111.55;;;;;;;;;;10196767;28;20125;-66
2022/11/17 23:00:32;;;;;;;114.90;107.68;;;;;;;;;;10197619;28;20066;-66
2022/11/17 23:05:29;;;;;;;115.97;108.65;;;;;;;;;;10196650;28;20052;-66
2022/11/17 23:10:25;;;;;;;117.65;110.28;;;;;;;;;;10195923;28;20058;-66
2022/11/17 23:15:21;;;;;;;118.32;111.18;;;;;;;;;;10196510;28;20108;-66
2022/11/17 23:20:18;;;;;;;116.97;109.90;;;;;;;;;;10195365;28;20046;-66
2022/11/17 23:25:14;;;;;;;123.78;116.18;;;;;;;;;;10196548;28;20050;-66
2022/11/17 23:30:11;;;;;;;123.65;115.95;;;;;;;;;;10195555;28;20054;-66
2022/11/17 23:35:07;;;;;;;123.70;115.93;;;;;;;;;;10194113;28;20128;-66
2022/11/17 23:40:04;;;;;;;121.85;114.25;;;;;;;;;;10194919;28;20124;-66
2022/11/17 23:45:00;;;;;;;120.75;113.32;;;;;;;;;;10195395;28;20077;-66
2022/11/17 23:49:56;;;;;;;121.63;114.05;;;;;;;;;;10195999;28;20073;-66
2022/11/17 23:54:53;;;;;;;122.18;114.75;;;;;;;;;;10194418;28;20077;-65
2022/11/17 23:59:49;;;;;;;125.55;117.85;;;;;;;;;;10194723;28;20041;-66
